Ardmore Seamaster — V7UU8 — position and weather

sailwx.info

Track history (hours):
 
Tides and Currents Weather Stations Pressure Air Temp Water Temp Dewpoint Dewpoint Depression Visibility Wind Speed Wind Dir Waves Ship Positions

Ardmore Seamaster

Last reported at 2017-Jan-23 12:32 UTC. Time now 2017-Jan-23 12:51 UTC.
Position N 40°38' W 074°04'.

Length 179 m; draft 7.3 m.

Type: Tanker. MMSI: 538004102.

Date/timePositionNaut miles runAvg speedWind from/ knotsBaromVisibWave heightAir tempDewpointWater temp
2017-Jan-23 12:32N 40°38' W 074°04'0 0.0
2017-Jan-23 11:32N 40°38' W 074°04'0 0.1
2017-Jan-23 10:32N 40°38' W 074°04'0 0.0
2017-Jan-23 09:32N 40°38' W 074°04'0 0.0
2017-Jan-23 08:32N 40°38' W 074°04'0 0.0
2017-Jan-23 07:32N 40°38' W 074°04'0 0.0
2017-Jan-23 06:32N 40°38' W 074°04'1 0.8
2017-Jan-23 05:33N 40°37' W 074°03'1110.6
2017-Jan-23 04:34N 40°29' W 073°54'9 9.0
2017-Jan-23 03:33N 40°29' W 074°06'7 7.0
2017-Jan-23 02:32N 40°32' W 074°15'1 0.0
2017-Jan-21 07:33N 40°33' W 074°15'5 4.5
2017-Jan-21 06:33N 40°37' W 074°12'5 5.1
2017-Jan-21 05:33N 40°39' W 074°06'2 2.3
2017-Jan-21 04:33N 40°39' W 074°03'0 0.1
2017-Jan-21 03:33N 40°39' W 074°03'0 0.0
2017-Jan-21 02:33N 40°39' W 074°03'0 0.0
2017-Jan-21 01:32N 40°39' W 074°03'0 0.1
2017-Jan-21 00:32N 40°39' W 074°03'0 0.0
2017-Jan-20 23:33N 40°39' W 074°03'0 0.1
2017-Jan-20 22:33N 40°39' W 074°03'0 0.1
2017-Jan-20 21:33N 40°39' W 074°03'0 0.0
2017-Jan-20 20:33N 40°39' W 074°03'0 0.0
2017-Jan-20 19:33N 40°39' W 074°03'0 0.0
2017-Jan-20 18:32N 40°39' W 074°03'0 0.0
2017-Jan-20 17:33N 40°39' W 074°03'0 0.1
2017-Jan-20 16:32N 40°39' W 074°03'0 0.1
2017-Jan-20 15:33N 40°39' W 074°03'0 0.0
2017-Jan-20 14:32N 40°39' W 074°03'0 0.0
2017-Jan-20 13:32N 40°39' W 074°03'0 0.1
2017-Jan-20 12:32N 40°39' W 074°03'0 0.0
2017-Jan-20 11:33N 40°39' W 074°03'0 0.0
2017-Jan-20 10:33N 40°39' W 074°03'0 0.2
2017-Jan-20 09:33N 40°39' W 074°03'0 0.1
2017-Jan-20 08:33N 40°39' W 074°03'3 2.5
2017-Jan-20 07:33N 40°36' W 074°03'1010.0
2017-Jan-20 06:33N 40°29' W 073°54'9 8.7
2017-Jan-20 05:32N 40°29' W 073°42'2 0.5
2017-Jan-20 01:33N 40°29' W 073°39'0 0.0
2017-Jan-20 00:33N 40°29' W 073°39'0 0.0
2017-Jan-19 23:33N 40°29' W 073°39'0 0.1
2017-Jan-19 22:33N 40°29' W 073°39'0 0.1
2017-Jan-19 21:31N 40°29' W 073°39'0 0.0
2017-Jan-19 20:30N 40°29' W 073°39'0 0.1
2017-Jan-19 19:26N 40°29' W 073°39'0 0.1
2017-Jan-19 18:30N 40°29' W 073°39'0 0.0
2017-Jan-19 17:31N 40°29' W 073°39'0 0.0
2017-Jan-19 16:33N 40°29' W 073°39'0 0.0
2017-Jan-19 15:33N 40°29' W 073°39'0 0.0
2017-Jan-19 14:16N 40°29' W 073°39'0 0.0
2017-Jan-19 13:18N 40°29' W 073°39'0 0.1
2017-Jan-19 11:33N 40°29' W 073°39'  
Track history (hours):
 
Tides and Currents Weather Stations Pressure Air Temp Water Temp Dewpoint Dewpoint Depression Visibility Wind Speed Wind Dir Waves Ship Positions

Ardmore Seamaster

Last reported at 2017-Jan-23 12:32 UTC. Time now 2017-Jan-23 12:51 UTC.
Position N 40°38' W 074°04'.

Length 179 m; draft 7.3 m.

Type: Tanker. MMSI: 538004102.

Date/timePositionNaut miles runAvg speedWind from/ knotsBaromVisibWave heightAir tempDewpointWater temp
2017-Jan-23 12:32N 40°38' W 074°04'0 0.0
2017-Jan-23 11:32N 40°38' W 074°04'0 0.1
2017-Jan-23 10:32N 40°38' W 074°04'0 0.0
2017-Jan-23 09:32N 40°38' W 074°04'0 0.0
2017-Jan-23 08:32N 40°38' W 074°04'0 0.0
2017-Jan-23 07:32N 40°38' W 074°04'0 0.0
2017-Jan-23 06:32N 40°38' W 074°04'1 0.8
2017-Jan-23 05:33N 40°37' W 074°03'1110.6
2017-Jan-23 04:34N 40°29' W 073°54'9 9.0
2017-Jan-23 03:33N 40°29' W 074°06'7 7.0
2017-Jan-23 02:32N 40°32' W 074°15'1 0.0
2017-Jan-21 07:33N 40°33' W 074°15'5 4.5
2017-Jan-21 06:33N 40°37' W 074°12'5 5.1
2017-Jan-21 05:33N 40°39' W 074°06'2 2.3
2017-Jan-21 04:33N 40°39' W 074°03'0 0.1
2017-Jan-21 03:33N 40°39' W 074°03'0 0.0
2017-Jan-21 02:33N 40°39' W 074°03'0 0.0
2017-Jan-21 01:32N 40°39' W 074°03'0 0.1
2017-Jan-21 00:32N 40°39' W 074°03'0 0.0
2017-Jan-20 23:33N 40°39' W 074°03'0 0.1
2017-Jan-20 22:33N 40°39' W 074°03'0 0.1
2017-Jan-20 21:33N 40°39' W 074°03'0 0.0
2017-Jan-20 20:33N 40°39' W 074°03'0 0.0
2017-Jan-20 19:33N 40°39' W 074°03'0 0.0
2017-Jan-20 18:32N 40°39' W 074°03'0 0.0
2017-Jan-20 17:33N 40°39' W 074°03'0 0.1
2017-Jan-20 16:32N 40°39' W 074°03'0 0.1
2017-Jan-20 15:33N 40°39' W 074°03'0 0.0
2017-Jan-20 14:32N 40°39' W 074°03'0 0.0
2017-Jan-20 13:32N 40°39' W 074°03'0 0.1
2017-Jan-20 12:32N 40°39' W 074°03'0 0.0
2017-Jan-20 11:33N 40°39' W 074°03'0 0.0
2017-Jan-20 10:33N 40°39' W 074°03'0 0.2
2017-Jan-20 09:33N 40°39' W 074°03'0 0.1
2017-Jan-20 08:33N 40°39' W 074°03'3 2.5
2017-Jan-20 07:33N 40°36' W 074°03'1010.0
2017-Jan-20 06:33N 40°29' W 073°54'9 8.7
2017-Jan-20 05:32N 40°29' W 073°42'2 0.5
2017-Jan-20 01:33N 40°29' W 073°39'0 0.0
2017-Jan-20 00:33N 40°29' W 073°39'0 0.0
2017-Jan-19 23:33N 40°29' W 073°39'0 0.1
2017-Jan-19 22:33N 40°29' W 073°39'0 0.1
2017-Jan-19 21:31N 40°29' W 073°39'0 0.0
2017-Jan-19 20:30N 40°29' W 073°39'0 0.1
2017-Jan-19 19:26N 40°29' W 073°39'0 0.1
2017-Jan-19 18:30N 40°29' W 073°39'0 0.0
2017-Jan-19 17:31N 40°29' W 073°39'0 0.0
2017-Jan-19 16:33N 40°29' W 073°39'0 0.0
2017-Jan-19 15:33N 40°29' W 073°39'0 0.0
2017-Jan-19 14:16N 40°29' W 073°39'0 0.0
2017-Jan-19 13:18N 40°29' W 073°39'0 0.1
2017-Jan-19 11:33N 40°29' W 073°39'  

Dump ship's entire track history